»·PEaware :: N5955E L88-KSBP

N5955E :: L88-KSBP

FLIGHT INFORMATION

Flight Status: Arrived
Operator: Privately registered:
United States
More flights under this callsign
Pilot: Ryan L. (18770)
Aircraft: CESSNA 172 SKYHAWK
(C172)
More flights by this aircraft type
Origin: L88 New Cuyama
United States
Destination: KSBP San Luis Co Regl
United States
More flights between these airports :: More routes between these airports
Route: L88 KSBP
File this flight plan on PilotEdge
Remarks: CAT 2
Altitude:
(Current/Filed)
5,500ft
Speed:
(Current/Filed)
110kts
Departed: 13-May-18 03:04 PM
Arrived: 13-May-18 03:37 PM
Distance/Time
Traveled:
50nm/0:33
Distance/Time
To Go:
Arrived

Flight Plot

Page will automatically refresh every two minutes.


Map Options




Map Legend


Flown Route
Filed Route
Departure Airport
Arrival Airport
Navaid (VOR, NDB)
Fix

Horizontal Profiles

Position Reports

Time Latitude Longitude Heading Altitude Ground
Speed
13-May-18 15:01 34.942781 -119.690796 111 2155ft 0kts
13-May-18 15:02 34.942793 -119.690697 29 2156ft 1kts
13-May-18 15:03 34.942438 -119.691209 174 2155ft 12kts
13-May-18 15:04 34.938284 -119.674583 36 2521ft 77kts
13-May-18 15:05 34.952617 -119.684698 292 3152ft 90kts
13-May-18 15:06 34.960081 -119.712919 292 3852ft 85kts
13-May-18 15:07 34.967641 -119.739533 293 4556ft 81kts
13-May-18 15:08 34.974334 -119.762389 293 5192ft 77kts
13-May-18 15:09 34.981280 -119.785780 294 5715ft 85kts
13-May-18 15:10 34.990502 -119.815809 293 5521ft 101kts
13-May-18 15:11 35.000651 -119.849434 293 5521ft 106kts
13-May-18 15:12 35.010776 -119.883132 293 5521ft 105kts
13-May-18 15:13 35.018878 -119.910185 293 5521ft 106kts
13-May-18 15:14 35.028449 -119.942191 293 5521ft 105kts
13-May-18 15:15 35.038556 -119.976000 293 5521ft 105kts
13-May-18 15:16 35.048664 -120.009850 293 5521ft 106kts
13-May-18 15:17 35.058790 -120.043813 293 5521ft 106kts
13-May-18 15:18 35.069018 -120.077977 294 5521ft 107kts
13-May-18 15:19 35.079659 -120.111834 294 5521ft 107kts
13-May-18 15:20 35.089933 -120.145851 293 5521ft 107kts
13-May-18 15:21 35.100088 -120.179994 293 5521ft 107kts
13-May-18 15:22 35.110256 -120.214255 293 5521ft 107kts
13-May-18 15:23 35.119085 -120.244034 289 5520ft 110kts
13-May-18 15:24 35.129499 -120.279242 289 5520ft 110kts
13-May-18 15:25 35.139801 -120.314052 289 5520ft 106kts
13-May-18 15:26 35.150052 -120.348690 290 5188ft 109kts
13-May-18 15:27 35.159992 -120.382368 290 4688ft 103kts
13-May-18 15:28 35.169222 -120.413791 289 4517ft 92kts
13-May-18 15:29 35.177817 -120.443064 289 4518ft 91kts
13-May-18 15:30 35.184873 -120.472297 282 4414ft 94kts
13-May-18 15:31 35.187479 -120.508944 272 3806ft 119kts
13-May-18 15:32 35.190752 -120.545447 281 3076ft 98kts
13-May-18 15:33 35.199892 -120.574748 301 2301ft 91kts
13-May-18 15:34 35.213690 -120.599865 305 1330ft 86kts
13-May-18 15:35 35.225024 -120.619470 305 652ft 68kts
13-May-18 15:36 35.235027 -120.637205 304 202ft 47kts
13-May-18 15:37 35.237566 -120.639840 50 191ft 7kts
13-May-18 15:38 35.237826 -120.637833 77 199ft 0kts
13-May-18 15:39 35.237826 -120.637833 77 199ft 0kts
13-May-18 15:40 35.237826 -120.637833 77 199ft 0kts
13-May-18 15:41 35.237826 -120.637833 77 199ft 0kts
13-May-18 15:42 35.237826 -120.637833 77 199ft 0kts
13-May-18 15:43 35.237826 -120.637833 77 199ft 0kts
13-May-18 15:44 35.237826 -120.637833 77 199ft 0kts
13-May-18 15:45 35.237826 -120.637833 77 199ft 0kts
13-May-18 15:46 35.237826 -120.637833 77 199ft 0kts
13-May-18 15:47 35.237826 -120.637833 77 199ft 0kts
13-May-18 15:48 35.237826 -120.637833 77 199ft 0kts
13-May-18 15:49 35.237826 -120.637833 77 199ft 0kts
13-May-18 15:50 35.237826 -120.637833 77 199ft 0kts
13-May-18 15:51 35.237556 -120.637551 181 200ft 5kts

Navigation Log

Ident Type
1. L88 Airport
2. KSBP Airport